createdAt,value
2022-07-26T00:00:49.595Z,20.30
2022-07-26T00:03:35.221Z,20.30
2022-07-26T00:06:20.609Z,20.30
2022-07-26T00:09:06.504Z,20.30
2022-07-26T00:12:16.884Z,20.40
2022-07-26T00:15:01.990Z,20.50
2022-07-26T00:17:47.241Z,20.60
2022-07-26T00:20:32.467Z,20.60
2022-07-26T00:23:19.676Z,20.70
2022-07-26T00:26:05.013Z,20.70
2022-07-26T00:28:50.660Z,20.70
2022-07-26T00:31:35.890Z,20.80
2022-07-26T00:34:21.395Z,20.80
2022-07-26T00:37:06.571Z,20.80
2022-07-26T00:39:51.906Z,20.80
2022-07-26T00:42:37.320Z,20.80
2022-07-26T00:45:22.800Z,20.90
2022-07-26T00:48:08.309Z,20.90
2022-07-26T00:50:54.487Z,20.80
2022-07-26T00:53:39.511Z,20.90
2022-07-26T00:56:25.827Z,20.90
2022-07-26T00:59:11.691Z,20.80
2022-07-26T01:01:57.651Z,20.80
2022-07-26T01:04:44.802Z,20.80
2022-07-26T01:07:30.106Z,20.80
2022-07-26T01:10:15.134Z,20.70
2022-07-26T01:13:00.252Z,20.70
2022-07-26T01:15:45.342Z,20.70
2022-07-26T01:18:30.955Z,20.60
2022-07-26T01:21:16.089Z,20.60
2022-07-26T01:24:01.358Z,20.60
2022-07-26T01:26:46.498Z,20.60
2022-07-26T01:29:35.966Z,20.60
2022-07-26T01:32:21.782Z,20.50
2022-07-26T01:35:07.801Z,20.50
2022-07-26T01:37:53.310Z,20.40
2022-07-26T01:40:38.749Z,20.40
2022-07-26T01:43:23.901Z,20.40
2022-07-26T01:46:09.488Z,20.30
2022-07-26T01:48:55.297Z,20.30
2022-07-26T01:51:40.494Z,20.20
2022-07-26T01:54:25.570Z,20.30
2022-07-26T01:57:10.578Z,20.30
2022-07-26T01:59:55.805Z,20.40
2022-07-26T02:02:40.942Z,20.30
2022-07-26T02:05:26.437Z,20.30
2022-07-26T02:08:12.155Z,20.30
2022-07-26T02:11:02.013Z,20.30
2022-07-26T02:13:53.021Z,20.30
2022-07-26T02:16:38.688Z,20.40
2022-07-26T02:19:23.803Z,20.40
2022-07-26T02:22:08.900Z,20.40
2022-07-26T02:24:54.161Z,20.40
2022-07-26T02:27:39.039Z,20.10
2022-07-26T02:30:24.299Z,20.30
2022-07-26T02:33:09.744Z,20.20
2022-07-26T02:35:55.620Z,20.20
2022-07-26T02:38:40.974Z,20.20
2022-07-26T02:41:26.448Z,20.10
2022-07-26T02:44:12.213Z,20.20
2022-07-26T02:46:57.755Z,20.20
2022-07-26T02:49:43.202Z,20.20
2022-07-26T02:52:28.374Z,20.10
2022-07-26T02:55:19.200Z,20.00
2022-07-26T02:58:04.520Z,20.00
2022-07-26T03:00:50.076Z,20.10
2022-07-26T03:03:36.554Z,20.10
2022-07-26T03:06:22.413Z,20.10
2022-07-26T03:09:07.559Z,20.20
2022-07-26T03:11:53.273Z,20.20
2022-07-26T03:14:38.904Z,20.40
2022-07-26T03:17:23.836Z,20.40
2022-07-26T03:20:09.437Z,20.40
2022-07-26T03:22:54.424Z,20.50
2022-07-26T03:25:39.985Z,20.50
2022-07-26T03:28:25.170Z,20.50
2022-07-26T03:31:11.859Z,20.40
2022-07-26T03:34:02.793Z,20.30
2022-07-26T03:36:48.634Z,20.10
2022-07-26T03:39:34.370Z,20.10
2022-07-26T03:42:19.975Z,19.70
2022-07-26T03:45:05.426Z,19.20
2022-07-26T03:47:50.842Z,18.80
2022-07-26T03:50:36.618Z,18.50
2022-07-26T03:53:21.899Z,18.30
2022-07-26T03:56:25.804Z,18.10
2022-07-26T03:59:11.397Z,18.00
2022-07-26T04:01:56.807Z,18.00
2022-07-26T04:04:42.394Z,17.90
2022-07-26T04:07:27.394Z,17.80
2022-07-26T04:10:13.518Z,17.80
2022-07-26T04:12:58.777Z,17.90
2022-07-26T04:15:44.296Z,17.80
2022-07-26T04:18:29.425Z,17.80
2022-07-26T04:21:14.471Z,17.90
2022-07-26T04:24:00.105Z,17.90
2022-07-26T04:26:46.412Z,17.90
2022-07-26T04:29:31.642Z,18.00
2022-07-26T04:32:16.612Z,18.10
2022-07-26T04:35:01.679Z,18.20
2022-07-26T04:37:46.825Z,18.20
2022-07-26T04:40:34.920Z,18.10
2022-07-26T04:43:26.253Z,18.10
2022-07-26T04:46:11.311Z,18.10
2022-07-26T04:48:57.019Z,18.20
2022-07-26T04:51:42.649Z,18.20
2022-07-26T04:54:28.289Z,18.30
2022-07-26T04:57:13.571Z,18.30
2022-07-26T05:00:20.233Z,18.40
2022-07-26T05:03:04.120Z,18.40
2022-07-26T05:05:49.827Z,18.40
2022-07-26T05:08:34.983Z,18.50
2022-07-26T05:11:19.969Z,18.50
2022-07-26T05:14:05.260Z,18.50
2022-07-26T05:16:50.877Z,18.50
2022-07-26T05:19:36.710Z,18.40
2022-07-26T05:22:22.095Z,18.40
2022-07-26T05:25:07.808Z,18.40
2022-07-26T05:27:53.649Z,18.30
2022-07-26T05:30:38.926Z,18.30
2022-07-26T05:33:24.656Z,18.30
2022-07-26T05:36:10.386Z,18.20
2022-07-26T05:38:56.017Z,18.30
2022-07-26T05:41:41.083Z,18.30
2022-07-26T05:44:26.517Z,18.20
2022-07-26T05:47:12.014Z,18.20
2022-07-26T05:49:57.007Z,18.20
2022-07-26T05:52:42.207Z,18.10
2022-07-26T05:55:27.292Z,18.10
2022-07-26T05:58:12.836Z,18.10
2022-07-26T06:00:57.932Z,18.10
2022-07-26T06:03:43.564Z,18.00
2022-07-26T06:06:29.191Z,17.80
2022-07-26T06:09:14.151Z,17.70
2022-07-26T06:11:59.759Z,17.60
2022-07-26T06:14:44.879Z,17.60
2022-07-26T06:17:30.617Z,17.50
2022-07-26T06:20:16.162Z,17.60
2022-07-26T06:23:01.268Z,17.50
2022-07-26T06:25:46.316Z,17.50
2022-07-26T06:28:31.535Z,17.60
2022-07-26T06:31:20.244Z,17.50
2022-07-26T06:34:05.889Z,17.60
2022-07-26T06:36:52.678Z,17.60
2022-07-26T06:39:38.240Z,17.60
2022-07-26T06:42:23.390Z,17.50
2022-07-26T06:45:09.091Z,17.70
2022-07-26T06:47:54.536Z,17.60
2022-07-26T06:50:41.538Z,17.70
2022-07-26T06:53:26.721Z,17.70
2022-07-26T06:56:14.908Z,17.70
2022-07-26T06:59:00.387Z,17.70
2022-07-26T07:01:57.855Z,17.70
2022-07-26T07:04:45.823Z,17.70
2022-07-26T07:07:31.306Z,17.60
2022-07-26T07:10:19.273Z,17.60
2022-07-26T07:13:08.233Z,17.70
2022-07-26T07:15:53.733Z,17.60
2022-07-26T07:18:40.193Z,17.60
2022-07-26T07:21:25.572Z,17.60
2022-07-26T07:24:11.852Z,17.60
2022-07-26T07:26:57.323Z,17.60
2022-07-26T07:29:43.344Z,17.60
2022-07-26T07:32:28.947Z,17.50
2022-07-26T07:35:14.514Z,17.60
2022-07-26T07:38:00.464Z,17.60
2022-07-26T07:40:45.647Z,17.60
2022-07-26T07:43:31.067Z,17.60
2022-07-26T07:46:16.344Z,17.70
2022-07-26T07:49:02.033Z,17.70
2022-07-26T07:51:47.634Z,17.80
2022-07-26T07:54:33.056Z,17.90
2022-07-26T07:57:18.202Z,17.90
2022-07-26T08:00:05.051Z,18.00
2022-07-26T08:02:50.579Z,18.10
2022-07-26T08:05:36.229Z,18.20
2022-07-26T08:08:25.897Z,18.30
2022-07-26T08:11:11.536Z,18.30
2022-07-26T08:13:57.558Z,18.40
2022-07-26T08:16:44.772Z,18.60
2022-07-26T08:19:41.685Z,18.60
2022-07-26T08:22:28.135Z,18.60
2022-07-26T08:25:13.302Z,18.60
2022-07-26T08:28:06.062Z,18.60
2022-07-26T08:30:51.375Z,18.60
2022-07-26T08:33:36.415Z,18.70
2022-07-26T08:36:31.903Z,18.60
2022-07-26T08:39:17.609Z,18.60
2022-07-26T08:42:04.127Z,18.70
2022-07-26T08:44:50.168Z,18.70
2022-07-26T08:47:46.275Z,18.80
2022-07-26T08:50:41.105Z,18.80
2022-07-26T08:53:29.211Z,18.90
2022-07-26T08:56:15.313Z,19.00
2022-07-26T08:59:02.796Z,19.10
2022-07-26T09:01:59.196Z,19.10
2022-07-26T09:04:46.342Z,19.30
2022-07-26T09:07:33.111Z,19.40
2022-07-26T09:10:18.413Z,19.50
2022-07-26T09:13:03.357Z,19.70
2022-07-26T09:15:48.891Z,19.80
2022-07-26T09:18:34.167Z,20.00
2022-07-26T09:21:29.406Z,20.10
2022-07-26T09:24:29.528Z,20.20
2022-07-26T09:27:16.636Z,20.10
2022-07-26T09:30:05.973Z,20.10
2022-07-26T09:32:59.049Z,20.00
2022-07-26T09:35:59.528Z,20.10
2022-07-26T09:38:46.088Z,20.10
2022-07-26T09:41:32.606Z,20.20
2022-07-26T09:44:21.009Z,20.30
2022-07-26T09:47:06.681Z,20.40
2022-07-26T09:50:11.380Z,20.70
2022-07-26T09:52:58.123Z,20.90
2022-07-26T09:55:46.468Z,21.10
2022-07-26T09:58:31.715Z,21.30
2022-07-26T10:01:17.202Z,21.30
2022-07-26T10:04:03.485Z,21.40
2022-07-26T10:06:49.222Z,21.40
2022-07-26T10:09:38.157Z,21.40
2022-07-26T10:12:30.179Z,21.40
2022-07-26T10:15:35.289Z,21.30
2022-07-26T10:18:36.237Z,21.30
2022-07-26T10:21:22.501Z,21.30
2022-07-26T10:24:23.872Z,21.40
2022-07-26T10:27:29.105Z,21.40
2022-07-26T10:30:22.441Z,21.60
2022-07-26T10:33:10.119Z,21.80
2022-07-26T10:35:55.386Z,21.70
2022-07-26T10:38:40.476Z,21.70
2022-07-26T10:41:43.217Z,21.70
2022-07-26T10:44:29.945Z,21.80
2022-07-26T10:47:18.867Z,22.00
2022-07-26T10:50:05.689Z,22.20
2022-07-26T10:52:58.863Z,22.50
2022-07-26T10:55:55.017Z,22.80
2022-07-26T10:58:44.048Z,22.90
2022-07-26T11:01:35.327Z,23.00
2022-07-26T11:04:23.149Z,23.10
2022-07-26T11:07:08.458Z,23.00
2022-07-26T11:09:57.078Z,22.90
2022-07-26T11:12:42.287Z,22.70
2022-07-26T11:15:27.481Z,22.60
2022-07-26T11:18:14.446Z,22.50
2022-07-26T11:21:09.911Z,22.40
2022-07-26T11:24:01.718Z,22.40
2022-07-26T11:26:47.187Z,22.50
2022-07-26T11:29:38.140Z,22.70
2022-07-26T11:32:25.624Z,22.60
2022-07-26T11:35:11.153Z,22.70
2022-07-26T11:38:07.905Z,22.60
2022-07-26T11:40:56.965Z,22.70
2022-07-26T11:43:42.480Z,22.90
2022-07-26T11:46:34.312Z,23.00
2022-07-26T11:49:19.644Z,23.20
2022-07-26T11:52:05.300Z,23.40
2022-07-26T11:54:52.483Z,23.50
2022-07-26T11:57:37.478Z,23.50
2022-07-26T12:00:23.565Z,22.80
2022-07-26T12:03:08.751Z,23.60
2022-07-26T12:06:07.518Z,23.60
2022-07-26T12:08:56.824Z,23.70
2022-07-26T12:11:44.265Z,23.70
2022-07-26T12:14:31.405Z,23.80
2022-07-26T12:17:18.000Z,24.00
2022-07-26T12:20:13.882Z,24.00
2022-07-26T12:23:05.015Z,24.10
2022-07-26T12:25:50.704Z,24.20
2022-07-26T12:28:42.640Z,23.80
2022-07-26T12:31:32.046Z,23.50
2022-07-26T12:34:21.275Z,23.50
2022-07-26T12:37:07.618Z,23.30
2022-07-26T12:40:03.271Z,23.50
2022-07-26T12:42:53.779Z,23.90
2022-07-26T12:45:43.535Z,24.00
2022-07-26T12:48:29.051Z,23.80
2022-07-26T12:51:14.525Z,23.60
2022-07-26T12:53:59.602Z,23.40
2022-07-26T12:56:46.352Z,23.30
2022-07-26T12:59:34.258Z,23.40
2022-07-26T13:02:20.438Z,22.50
2022-07-26T13:05:06.313Z,23.80
2022-07-26T13:07:52.174Z,24.10
2022-07-26T13:10:37.920Z,24.40
2022-07-26T13:13:23.493Z,24.40
2022-07-26T13:16:12.053Z,24.20
2022-07-26T13:18:57.780Z,24.00
2022-07-26T13:21:43.231Z,23.80
2022-07-26T13:24:29.240Z,23.50
2022-07-26T13:27:15.246Z,23.50
2022-07-26T13:30:00.749Z,23.30
2022-07-26T13:32:46.153Z,23.40
2022-07-26T13:35:31.233Z,23.60
2022-07-26T13:38:19.124Z,23.60
2022-07-26T13:41:04.660Z,23.60
2022-07-26T13:43:51.738Z,23.60
2022-07-26T13:46:36.951Z,23.60
2022-07-26T13:49:23.500Z,23.70
2022-07-26T13:52:13.559Z,23.70
2022-07-26T13:55:01.470Z,23.90
2022-07-26T13:57:53.223Z,24.10
2022-07-26T14:00:42.808Z,24.30
2022-07-26T14:03:32.095Z,24.20
2022-07-26T14:06:20.359Z,24.00
2022-07-26T14:09:10.393Z,24.10
2022-07-26T14:11:56.184Z,24.00
2022-07-26T14:14:41.270Z,24.00
2022-07-26T14:17:26.879Z,24.60
2022-07-26T14:20:12.196Z,25.10
2022-07-26T14:22:57.928Z,25.60
2022-07-26T14:25:43.557Z,26.10
2022-07-26T14:28:28.739Z,25.80
2022-07-26T14:31:14.767Z,25.60
2022-07-26T14:34:00.901Z,25.50
2022-07-26T14:36:46.470Z,25.30
2022-07-26T14:39:31.917Z,25.70
2022-07-26T14:42:17.339Z,25.90
2022-07-26T14:45:02.428Z,25.60
2022-07-26T14:47:47.740Z,25.40
2022-07-26T14:50:53.090Z,25.40
2022-07-26T14:53:38.534Z,25.30
2022-07-26T14:56:24.180Z,25.20
2022-07-26T14:59:09.736Z,25.00
2022-07-26T15:01:54.783Z,24.90
2022-07-26T15:04:40.645Z,24.80
2022-07-26T15:07:26.106Z,24.80
2022-07-26T15:10:12.413Z,24.80
2022-07-26T15:12:58.161Z,24.60
2022-07-26T15:15:43.581Z,24.60
2022-07-26T15:18:28.663Z,24.60
2022-07-26T15:21:17.143Z,24.50
2022-07-26T15:24:03.950Z,24.20
2022-07-26T15:26:49.478Z,24.10
2022-07-26T15:29:36.033Z,24.20
2022-07-26T15:32:21.348Z,24.40
2022-07-26T15:35:07.467Z,24.40
2022-07-26T15:38:01.543Z,24.00
2022-07-26T15:40:46.855Z,23.90
2022-07-26T15:43:44.131Z,23.90
2022-07-26T15:46:34.269Z,24.20
2022-07-26T15:49:20.338Z,24.60
2022-07-26T15:52:06.170Z,24.80
2022-07-26T15:54:52.872Z,25.10
2022-07-26T15:57:39.749Z,24.90
2022-07-26T16:00:25.326Z,24.40
2022-07-26T16:03:11.444Z,24.10
2022-07-26T16:05:56.912Z,24.00
2022-07-26T16:08:58.902Z,23.80
2022-07-26T16:11:48.126Z,23.60
2022-07-26T16:14:33.528Z,23.40
2022-07-26T16:17:19.093Z,23.10
2022-07-26T16:20:05.157Z,22.80
2022-07-26T16:22:50.432Z,22.60
2022-07-26T16:25:35.727Z,22.60
2022-07-26T16:28:21.299Z,22.50
2022-07-26T16:31:06.964Z,22.50
2022-07-26T16:33:52.557Z,22.40
2022-07-26T16:36:38.368Z,22.50
2022-07-26T16:39:23.763Z,22.40
2022-07-26T16:42:08.862Z,22.10
2022-07-26T16:44:53.920Z,22.10
2022-07-26T16:47:39.601Z,21.90
2022-07-26T16:50:27.192Z,21.80
2022-07-26T16:53:13.496Z,21.50
2022-07-26T16:55:58.847Z,21.10
2022-07-26T16:58:44.532Z,21.00
2022-07-26T17:01:29.586Z,20.80
2022-07-26T17:04:16.640Z,20.70
2022-07-26T17:07:24.049Z,20.50
2022-07-26T17:10:09.327Z,20.40
2022-07-26T17:12:54.617Z,20.20
2022-07-26T17:15:40.291Z,20.10
2022-07-26T17:18:26.051Z,20.20
2022-07-26T17:21:11.535Z,20.10
2022-07-26T17:23:56.645Z,20.00
2022-07-26T17:26:42.377Z,19.90
2022-07-26T17:29:28.029Z,19.90
2022-07-26T17:32:13.670Z,19.90
2022-07-26T17:34:58.843Z,19.80
2022-07-26T17:37:44.443Z,19.80
2022-07-26T17:40:31.561Z,19.80
2022-07-26T17:43:17.780Z,18.10
2022-07-26T17:46:02.838Z,19.90
2022-07-26T17:48:48.503Z,19.90
2022-07-26T17:51:34.226Z,19.80
2022-07-26T17:54:19.763Z,19.60
2022-07-26T17:57:06.310Z,19.60
2022-07-26T17:59:51.412Z,19.40
2022-07-26T18:02:36.694Z,19.30
2022-07-26T18:05:22.352Z,19.10
2022-07-26T18:08:07.961Z,19.10
2022-07-26T18:10:54.510Z,19.00
2022-07-26T18:13:40.287Z,18.80
2022-07-26T18:16:27.058Z,18.80
2022-07-26T18:19:12.830Z,18.70
2022-07-26T18:21:59.915Z,18.60
2022-07-26T18:24:48.405Z,18.50
2022-07-26T18:27:34.060Z,18.40
2022-07-26T18:30:19.670Z,18.30
2022-07-26T18:33:05.565Z,18.30
2022-07-26T18:35:50.797Z,18.10
2022-07-26T18:38:37.209Z,17.90
2022-07-26T18:41:22.171Z,17.90
2022-07-26T18:44:07.854Z,17.80
2022-07-26T18:46:53.424Z,17.70
2022-07-26T18:49:38.951Z,17.60
2022-07-26T18:52:31.936Z,17.60
2022-07-26T18:55:18.212Z,17.60
2022-07-26T18:58:06.861Z,17.50
2022-07-26T19:00:53.002Z,17.40
2022-07-26T19:03:38.837Z,17.50
2022-07-26T19:06:24.866Z,17.40
2022-07-26T19:09:10.367Z,17.40
2022-07-26T19:11:58.094Z,17.40
2022-07-26T19:14:43.244Z,17.40
2022-07-26T19:17:30.036Z,17.30
2022-07-26T19:20:15.651Z,17.30
2022-07-26T19:23:01.225Z,17.20
2022-07-26T19:25:47.246Z,17.00
2022-07-26T19:28:32.825Z,17.10
2022-07-26T19:31:18.535Z,17.10
2022-07-26T19:34:04.043Z,17.00
2022-07-26T19:36:51.022Z,17.00
2022-07-26T19:39:36.491Z,16.90
2022-07-26T19:42:21.828Z,16.90
2022-07-26T19:45:07.688Z,16.80
2022-07-26T19:47:53.159Z,16.70
2022-07-26T19:50:39.014Z,16.60
2022-07-26T19:53:24.555Z,16.60
2022-07-26T19:56:09.615Z,16.50
2022-07-26T19:58:55.526Z,16.50
2022-07-26T20:01:40.940Z,16.50
2022-07-26T20:04:26.829Z,16.50
2022-07-26T20:07:12.981Z,15.10
2022-07-26T20:09:58.476Z,16.30
2022-07-26T20:12:44.202Z,16.20
2022-07-26T20:15:29.520Z,16.20
2022-07-26T20:18:14.816Z,16.10
2022-07-26T20:21:00.368Z,16.10
2022-07-26T20:23:46.019Z,16.10
2022-07-26T20:26:31.684Z,16.00
2022-07-26T20:29:17.426Z,15.90
2022-07-26T20:32:02.910Z,15.90
2022-07-26T20:34:48.353Z,15.90
2022-07-26T20:37:33.514Z,15.90
2022-07-26T20:40:19.043Z,15.80
2022-07-26T20:43:05.125Z,15.80
2022-07-26T20:45:50.735Z,15.70
2022-07-26T20:48:36.375Z,15.70
2022-07-26T20:51:22.019Z,15.70
2022-07-26T20:54:08.662Z,15.70
2022-07-26T20:56:54.070Z,15.70
2022-07-26T20:59:39.283Z,15.60
2022-07-26T21:02:25.050Z,15.50
2022-07-26T21:05:10.804Z,15.50
2022-07-26T21:07:59.390Z,15.40
2022-07-26T21:10:46.032Z,15.50
2022-07-26T21:13:34.103Z,15.40
2022-07-26T21:16:19.632Z,15.30
2022-07-26T21:19:05.730Z,15.30
2022-07-26T21:21:54.553Z,15.20
2022-07-26T21:24:39.883Z,15.30
2022-07-26T21:27:26.437Z,15.20
2022-07-26T21:30:12.211Z,15.20
2022-07-26T21:32:57.561Z,15.10
2022-07-26T21:35:43.284Z,15.10
2022-07-26T21:38:31.937Z,15.10
2022-07-26T21:41:17.321Z,15.10
2022-07-26T21:44:02.704Z,15.00
2022-07-26T21:46:54.879Z,15.00
2022-07-26T21:49:40.278Z,14.90
2022-07-26T21:52:25.797Z,14.90
2022-07-26T21:55:11.484Z,14.80
2022-07-26T21:58:03.471Z,14.80
2022-07-26T22:00:49.209Z,14.80
2022-07-26T22:03:35.760Z,14.70
2022-07-26T22:06:21.353Z,14.70
2022-07-26T22:09:06.523Z,14.70
2022-07-26T22:11:52.195Z,14.70
2022-07-26T22:14:38.354Z,14.60
2022-07-26T22:17:23.366Z,14.50
2022-07-26T22:20:09.396Z,14.60
2022-07-26T22:22:54.379Z,14.50
2022-07-26T22:25:39.884Z,14.50
2022-07-26T22:28:25.220Z,14.40
2022-07-26T22:31:10.459Z,14.50
2022-07-26T22:33:55.960Z,14.40
2022-07-26T22:36:45.403Z,14.30
2022-07-26T22:39:31.263Z,14.30
2022-07-26T22:42:16.897Z,14.30
2022-07-26T22:45:03.297Z,14.20
2022-07-26T22:47:56.701Z,14.20
2022-07-26T22:50:42.279Z,14.20
2022-07-26T22:53:27.529Z,14.10
2022-07-26T22:56:13.043Z,14.10
2022-07-26T22:59:04.611Z,14.10
2022-07-26T23:01:50.220Z,14.10
2022-07-26T23:04:35.313Z,14.10
2022-07-26T23:07:20.664Z,14.10
2022-07-26T23:10:07.577Z,14.10
2022-07-26T23:12:54.080Z,14.10
2022-07-26T23:15:39.632Z,14.00
2022-07-26T23:18:24.724Z,14.00
2022-07-26T23:21:09.794Z,14.00
2022-07-26T23:23:54.921Z,13.90
2022-07-26T23:26:40.107Z,13.90
2022-07-26T23:29:25.634Z,13.90
2022-07-26T23:32:10.743Z,13.80
2022-07-26T23:34:55.817Z,13.70
2022-07-26T23:37:41.037Z,13.70
2022-07-26T23:40:26.638Z,13.70
2022-07-26T23:43:11.800Z,13.60
2022-07-26T23:45:57.454Z,13.70
2022-07-26T23:48:43.105Z,13.70
2022-07-26T23:51:28.228Z,13.70
2022-07-26T23:54:13.711Z,13.80
2022-07-26T23:56:58.899Z,13.80
2022-07-26T23:59:44.198Z,13.80
